Time;durP1;ratioP1;P1;durP2;ratioP2;P2;SDS_P1;SDS_P2;PMS_P1;PMS_P2;Temp;Humidity;BMP_temperature;BMP_pressure;BME280_temperature;BME280_humidity;BME280_pressure;Samples;Min_cycle;Max_cycle;Signal;HPM_P1;HPM_P2
2023/03/08 00:01:16;;;;;;;;;;;;;;;5.09;68.08;99969.47;5024751;28;19960;-67
2023/03/08 00:03:42;;;;;;;;;;;;;;;5.09;68.07;99969.47;5017091;28;19923;-67
2023/03/08 00:06:09;;;;;;;;;;;;;;;5.07;68.09;99960.88;5021843;28;19917;-67
2023/03/08 00:08:34;;;;;;;;;;;;;;;5.06;67.94;99965.41;5029459;28;19917;-67
2023/03/08 00:11:03;;;;;;;;;;;;;;;5.06;68.23;99969.94;5032272;28;20250;-72
2023/03/08 00:13:28;;;;;;;;;;;;;;;5.05;68.10;99960.28;5020665;28;19924;-69
2023/03/08 00:15:57;;;;;;;;;;;;;;;5.04;68.12;99962.16;5021682;28;19922;-67
2023/03/08 00:18:22;;;;;;;;;;;;;;;5.03;67.97;99957.81;5015512;28;19917;-67
2023/03/08 00:20:56;;;;;;;;;;;;;;;5.03;67.82;99965.03;5020882;28;20012;-66
2023/03/08 00:23:22;;;;;;;;;;;;;;;5.02;67.79;99955.41;5022684;28;19928;-68
2023/03/08 00:25:50;;;;;;;;;;;;;;;5.02;68.26;99966.09;5022047;28;20440;-67
2023/03/08 00:28:16;;;;;;;;;;;;;;;5.01;67.89;99965.25;5024496;28;19917;-67
2023/03/08 00:30:41;;;;;;;;;;;;;;;4.99;68.08;99959.34;5022074;28;19967;-68
2023/03/08 00:33:06;;;;;;;;;;;;;;;4.98;68.22;99963.84;5018341;28;20052;-66
2023/03/08 00:35:31;;;;;;;;;;;;;;;4.98;68.10;99963.84;5015165;28;19917;-68
2023/03/08 00:37:57;;;;;;;;;;;;;;;4.97;68.15;99956.06;5018869;28;20039;-69
2023/03/08 00:40:22;;;;;;;;;;;;;;;4.97;68.00;99958.75;5030067;28;19932;-68
2023/03/08 00:42:47;;;;;;;;;;;;;;;4.96;67.97;99957.09;5025104;28;19921;-67
2023/03/08 00:45:12;;;;;;;;;;;;;;;4.95;68.06;99953.59;5027948;28;20309;-67
2023/03/08 00:47:38;;;;;;;;;;;;;;;4.96;67.95;99954.41;5014795;28;19929;-69
2023/03/08 00:50:03;;;;;;;;;;;;;;;4.95;68.02;99950.13;5029377;28;20418;-70
2023/03/08 00:52:29;;;;;;;;;;;;;;;4.94;68.06;99953.84;5024047;28;19964;-66
2023/03/08 00:54:54;;;;;;;;;;;;;;;4.93;67.93;99952.19;5020807;28;19921;-66
2023/03/08 00:57:19;;;;;;;;;;;;;;;4.92;67.96;99948.72;5021334;28;20316;-66
2023/03/08 00:59:44;;;;;;;;;;;;;;;4.91;67.84;99943.56;5028290;28;19983;-68
2023/03/08 01:02:09;;;;;;;;;;;;;;;4.91;67.97;99941.72;5030762;28;19928;-67
2023/03/08 01:04:35;;;;;;;;;;;;;;;4.91;67.84;99938.22;5028130;28;19932;-65
2023/03/08 01:07:00;;;;;;;;;;;;;;;4.87;68.05;99927.16;5014792;28;19929;-66
2023/03/08 01:09:25;;;;;;;;;;;;;;;4.88;68.15;99925.28;5025475;28;20427;-66
2023/03/08 01:11:51;;;;;;;;;;;;;;;4.87;68.05;99921.00;5029187;28;19933;-67
2023/03/08 01:14:16;;;;;;;;;;;;;;;4.87;68.29;99921.00;5031045;28;20366;-67
2023/03/08 01:16:41;;;;;;;;;;;;;;;4.87;68.09;99921.00;5030949;28;20012;-67
2023/03/08 01:19:07;;;;;;;;;;;;;;;4.86;67.94;99919.34;5026396;28;19928;-67
2023/03/08 01:21:32;;;;;;;;;;;;;;;4.85;68.11;99913.19;5027180;28;19925;-67
2023/03/08 01:23:57;;;;;;;;;;;;;;;4.85;67.87;99912.38;5030208;28;20016;-67
2023/03/08 01:26:24;;;;;;;;;;;;;;;4.85;68.06;99904.34;5024412;28;20369;-68
2023/03/08 01:28:50;;;;;;;;;;;;;;;4.84;67.87;99892.81;5025479;28;19923;-67
2023/03/08 01:31:17;;;;;;;;;;;;;;;4.84;68.03;99889.31;5016278;28;20000;-67
2023/03/08 01:33:43;;;;;;;;;;;;;;;4.84;67.87;99889.31;5027370;28;19925;-67
2023/03/08 01:36:09;;;;;;;;;;;;;;;4.84;67.95;99883.97;5030010;28;19916;-71
2023/03/08 01:38:35;;;;;;;;;;;;;;;4.82;68.03;99884.19;5021620;28;19921;-67
2023/03/08 01:41:01;;;;;;;;;;;;;;;4.82;67.91;99878.03;5018602;28;19917;-67
2023/03/08 01:43:31;;;;;;;;;;;;;;;4.82;68.09;99872.69;5025931;28;19917;-67
2023/03/08 01:46:02;;;;;;;;;;;;;;;4.81;68.18;99882.56;5031994;28;20361;-67
2023/03/08 01:48:30;;;;;;;;;;;;;;;4.80;68.14;99864.88;5030169;28;19962;-67
2023/03/08 01:50:57;;;;;;;;;;;;;;;4.78;67.88;99870.44;5030170;28;19917;-65
2023/03/08 01:53:22;;;;;;;;;;;;;;;4.78;68.07;99875.78;5027722;28;19917;-66
2023/03/08 01:55:47;;;;;;;;;;;;;;;4.77;67.85;99871.50;5030512;28;20285;-65
2023/03/08 01:58:12;;;;;;;;;;;;;;;4.77;68.13;99866.16;5022258;28;19951;-66
2023/03/08 02:00:38;;;;;;;;;;;;;;;4.77;68.34;99862.66;5032570;28;20364;-66
2023/03/08 02:03:06;;;;;;;;;;;;;;;4.77;68.34;99870.69;5030936;28;19947;-66
2023/03/08 02:05:31;;;;;;;;;;;;;;;4.76;68.21;99856.50;5022226;28;20254;-66
2023/03/08 02:07:57;;;;;;;;;;;;;;;4.77;68.30;99846.59;5015479;28;20381;-67
2023/03/08 02:10:22;;;;;;;;;;;;;;;4.76;68.06;99844.94;5014780;28;19956;-67
2023/03/08 02:12:47;;;;;;;;;;;;;;;4.75;68.03;99836.13;5019117;28;19964;-66
2023/03/08 02:15:14;;;;;;;;;;;;;;;4.76;67.86;99834.25;5027461;28;19929;-66
2023/03/08 02:17:40;;;;;;;;;;;;;;;4.75;68.07;99828.09;5025607;28;19956;-67
2023/03/08 02:20:22;;;;;;;;;;;;;;;4.75;68.28;99820.06;5017638;28;19917;-68
2023/03/08 02:22:51;;;;;;;;;;;;;;;4.74;67.87;99813.09;5020021;28;19920;-66
2023/03/08 02:25:19;;;;;;;;;;;;;;;4.73;68.13;99816.78;5032910;28;20308;-66
2023/03/08 02:27:44;;;;;;;;;;;;;;;4.73;68.14;99816.78;5028287;28;19963;-67
2023/03/08 02:30:11;;;;;;;;;;;;;;;4.73;68.04;99814.13;5021721;28;19925;-65
2023/03/08 02:32:36;;;;;;;;;;;;;;;4.74;68.31;99806.94;5031347;28;19917;-66
2023/03/08 02:35:01;;;;;;;;;;;;;;;4.73;67.99;99806.09;5014929;28;19921;-66
2023/03/08 02:37:27;;;;;;;;;;;;;;;4.73;68.05;99802.59;5025785;28;20353;-66
2023/03/08 02:39:52;;;;;;;;;;;;;;;4.72;68.09;99798.31;5027838;28;19918;-67
2023/03/08 02:42:17;;;;;;;;;;;;;;;4.72;68.15;99809.81;5014889;28;20373;-67
2023/03/08 02:44:42;;;;;;;;;;;;;;;4.72;67.94;99801.81;5019697;28;19921;-67
2023/03/08 02:47:11;;;;;;;;;;;;;;;4.71;68.12;99804.69;5024336;28;19923;-66
2023/03/08 02:49:36;;;;;;;;;;;;;;;4.71;67.88;99802.84;5022836;28;19964;-65
2023/03/08 02:52:01;;;;;;;;;;;;;;;4.71;68.24;99799.34;5018741;28;19961;-67
2023/03/08 02:54:27;;;;;;;;;;;;;;;4.70;68.19;99795.03;5016463;28;19929;-67
2023/03/08 02:56:52;;;;;;;;;;;;;;;4.70;68.17;99787.84;5018545;28;20326;-67
2023/03/08 02:59:17;;;;;;;;;;;;;;;4.69;68.09;99793.44;5029653;28;19921;-66
2023/03/08 03:01:42;;;;;;;;;;;;;;;4.69;68.11;99782.72;5025505;28;19917;-66
2023/03/08 03:04:07;;;;;;;;;;;;;;;4.69;68.38;99770.16;5032038;28;19921;-66
2023/03/08 03:06:33;;;;;;;;;;;;;;;4.69;68.06;99772.03;5025785;28;20016;-66
2023/03/08 03:08:58;;;;;;;;;;;;;;;4.68;68.34;99773.06;5030591;28;19925;-66
2023/03/08 03:11:23;;;;;;;;;;;;;;;4.67;68.26;99772.25;5020081;28;19980;-66
2023/03/08 03:13:53;;;;;;;;;;;;;;;4.68;68.25;99773.88;5017474;28;19940;-66
2023/03/08 03:16:18;;;;;;;;;;;;;;;4.67;68.24;99766.88;5013425;28;20362;-68
2023/03/08 03:18:44;;;;;;;;;;;;;;;4.68;68.17;99765.84;5026574;28;19921;-66
2023/03/08 03:21:11;;;;;;;;;;;;;;;4.67;68.20;99763.41;5014198;28;19917;-66
2023/03/08 03:23:36;;;;;;;;;;;;;;;4.67;68.10;99747.34;5024286;28;19975;-68
2023/03/08 03:26:06;;;;;;;;;;;;;;;4.68;68.44;99736.41;5015527;28;20391;-67
2023/03/08 03:28:32;;;;;;;;;;;;;;;4.67;68.31;99728.63;5027436;28;19921;-67
2023/03/08 03:30:57;;;;;;;;;;;;;;;4.67;68.03;99720.59;5032400;28;20011;-67
2023/03/08 03:33:22;;;;;;;;;;;;;;;4.66;68.04;99714.44;5022185;28;19924;-67
2023/03/08 03:35:47;;;;;;;;;;;;;;;4.66;68.10;99722.47;5018829;28;19924;-67
2023/03/08 03:38:13;;;;;;;;;;;;;;;4.66;68.12;99719.81;5025797;28;19956;-65
2023/03/08 03:40:38;;;;;;;;;;;;;;;4.66;68.40;99714.44;5029570;28;19925;-66
2023/03/08 03:43:03;;;;;;;;;;;;;;;4.66;68.06;99710.94;5021958;28;19924;-66
2023/03/08 03:45:29;;;;;;;;;;;;;;;4.65;68.29;99720.81;5015476;28;19960;-66
2023/03/08 03:47:54;;;;;;;;;;;;;;;4.65;68.38;99712.00;5019649;28;20008;-67
2023/03/08 03:50:19;;;;;;;;;;;;;;;4.64;68.33;99705.84;5026469;28;20478;-70
2023/03/08 03:52:44;;;;;;;;;;;;;;;4.64;68.29;99700.47;5030831;28;19921;-67
2023/03/08 03:55:10;;;;;;;;;;;;;;;4.64;68.10;99708.50;5022859;28;19917;-66
2023/03/08 03:57:35;;;;;;;;;;;;;;;4.64;68.45;99708.50;5013240;28;19921;-67
2023/03/08 04:00:00;;;;;;;;;;;;;;;4.63;68.29;99698.84;5032084;28;20411;-67
2023/03/08 04:02:27;;;;;;;;;;;;;;;4.64;68.26;99689.78;5022117;28;19934;-65
2023/03/08 04:04:52;;;;;;;;;;;;;;;4.63;68.12;99681.97;5025899;28;20004;-66
2023/03/08 04:07:17;;;;;;;;;;;;;;;4.63;68.40;99682.78;5023163;28;20024;-67
2023/03/08 04:09:42;;;;;;;;;;;;;;;4.65;68.03;99674.53;5027756;28;20392;-66
2023/03/08 04:12:08;;;;;;;;;;;;;;;4.64;68.03;99675.59;5030827;28;19921;-67
2023/03/08 04:14:33;;;;;;;;;;;;;;;4.63;68.35;99666.75;5028673;28;19971;-67
2023/03/08 04:16:58;;;;;;;;;;;;;;;4.63;68.04;99669.41;5019449;28;20072;-67
2023/03/08 04:19:23;;;;;;;;;;;;;;;4.63;68.26;99655.22;5015703;28;19928;-67
2023/03/08 04:21:50;;;;;;;;;;;;;;;4.64;68.43;99659.56;5031870;28;20376;-66
2023/03/08 04:24:15;;;;;;;;;;;;;;;4.63;68.31;99648.00;5029780;28;19924;-67
2023/03/08 04:26:40;;;;;;;;;;;;;;;4.63;68.07;99656.03;5027227;28;19925;-66
2023/03/08 04:29:09;;;;;;;;;;;;;;;4.64;68.18;99643.50;5030448;28;20011;-66
2023/03/08 04:31:34;;;;;;;;;;;;;;;4.63;67.97;99645.34;5029705;28;19921;-66
2023/03/08 04:34:00;;;;;;;;;;;;;;;4.63;68.17;99642.66;5026358;28;19924;-66
2023/03/08 04:36:26;;;;;;;;;;;;;;;4.62;68.48;99638.38;5024669;28;20301;-66
2023/03/08 04:38:51;;;;;;;;;;;;;;;4.62;68.16;99637.56;5025796;28;20024;-66
2023/03/08 04:41:17;;;;;;;;;;;;;;;4.61;68.25;99620.72;5012727;28;19921;-67
2023/03/08 04:43:47;;;;;;;;;;;;;;;4.61;68.50;99615.34;5018323;28;19928;-66
2023/03/08 04:46:13;;;;;;;;;;;;;;;4.62;68.08;99616.97;5025468;28;19917;-67
2023/03/08 04:48:38;;;;;;;;;;;;;;;4.62;68.39;99616.16;5015673;28;19921;-66
2023/03/08 04:51:04;;;;;;;;;;;;;;;4.60;68.24;99611.03;5026663;28;20320;-66
2023/03/08 04:53:30;;;;;;;;;;;;;;;4.60;68.24;99604.88;5029148;28;19925;-67
2023/03/08 04:55:55;;;;;;;;;;;;;;;4.61;68.25;99603.81;5030628;28;19917;-66
2023/03/08 04:58:21;;;;;;;;;;;;;;;4.60;68.16;99592.31;5028931;28;19928;-66
2023/03/08 05:00:47;;;;;;;;;;;;;;;4.60;68.35;99592.31;5024304;28;20408;-68
2023/03/08 05:03:12;;;;;;;;;;;;;;;4.60;67.98;99580.81;5023719;28;20357;-67
2023/03/08 05:05:51;;;;;;;;;;;;;;;4.60;68.08;99589.66;5027402;28;19923;-66
2023/03/08 05:08:17;;;;;;;;;;;;;;;4.60;68.40;99575.47;5023697;28;20259;-66
2023/03/08 05:10:46;;;;;;;;;;;;;;;4.59;68.13;99569.31;5017539;28;19924;-66
2023/03/08 05:13:11;;;;;;;;;;;;;;;4.59;68.51;99569.31;5016412;28;19917;-67
2023/03/08 05:15:36;;;;;;;;;;;;;;;4.60;68.22;99575.47;5030482;28;20266;-66
2023/03/08 05:18:02;;;;;;;;;;;;;;;4.60;68.14;99565.56;5024952;28;20008;-66
2023/03/08 05:20:27;;;;;;;;;;;;;;;4.59;68.52;99563.97;5025911;28;19921;-67
2023/03/08 05:22:52;;;;;;;;;;;;;;;4.59;68.35;99547.91;5019090;28;19924;-66
2023/03/08 05:25:18;;;;;;;;;;;;;;;4.59;68.30;99547.91;5027076;28;19925;-66
2023/03/08 05:27:43;;;;;;;;;;;;;;;4.59;68.44;99541.75;5020508;28;19921;-67
2023/03/08 05:30:08;;;;;;;;;;;;;;;4.59;68.34;99534.53;5018244;28;20384;-66
2023/03/08 05:32:34;;;;;;;;;;;;;;;4.59;68.26;99531.06;5026717;28;19928;-67
2023/03/08 05:34:59;;;;;;;;;;;;;;;4.58;68.44;99518.72;5031500;28;19935;-67
2023/03/08 05:37:24;;;;;;;;;;;;;;;4.58;68.26;99519.53;5033476;28;20491;-67
2023/03/08 05:39:50;;;;;;;;;;;;;;;4.58;68.23;99513.38;5034507;28;19991;-67
2023/03/08 05:42:15;;;;;;;;;;;;;;;4.58;68.42;99514.16;5033920;28;20370;-67
2023/03/08 05:44:40;;;;;;;;;;;;;;;4.57;68.27;99509.88;5023960;28;20328;-67
2023/03/08 05:47:06;;;;;;;;;;;;;;;4.57;68.29;99507.22;5027694;28;19921;-66
2023/03/08 05:49:31;;;;;;;;;;;;;;;4.57;68.40;99498.38;5033580;28;19921;-72
2023/03/08 05:51:56;;;;;;;;;;;;;;;4.57;68.39;99485.81;5022656;28;20493;-68
2023/03/08 05:54:21;;;;;;;;;;;;;;;4.57;68.27;99488.50;5023854;28;20420;-67
2023/03/08 05:56:47;;;;;;;;;;;;;;;4.57;68.34;99483.13;5028461;28;19928;-69
2023/03/08 05:59:12;;;;;;;;;;;;;;;4.55;68.34;99486.03;5034536;28;20373;-67
2023/03/08 06:01:37;;;;;;;;;;;;;;;4.54;68.33;99481.75;5034223;28;20277;-66
2023/03/08 06:04:03;;;;;;;;;;;;;;;4.55;68.17;99490.56;5033267;28;20012;-68
2023/03/08 06:06:28;;;;;;;;;;;;;;;4.53;68.34;99480.09;5034634;28;19917;-67
2023/03/08 06:08:55;;;;;;;;;;;;;;;4.54;68.48;99483.63;5031491;28;19925;-67
2023/03/08 06:11:20;;;;;;;;;;;;;;;4.54;68.56;99486.28;5022082;28;19917;-67
2023/03/08 06:13:45;;;;;;;;;;;;;;;4.53;68.16;99479.28;5030418;28;19963;-68
2023/03/08 06:16:11;;;;;;;;;;;;;;;4.53;68.25;99476.63;5031194;28;19917;-67
2023/03/08 06:18:37;;;;;;;;;;;;;;;4.53;68.34;99476.63;5024768;28;19921;-66
2023/03/08 06:21:13;;;;;;;;;;;;;;;4.52;68.42;99480.34;5029223;28;19917;-67
2023/03/08 06:23:38;;;;;;;;;;;;;;;4.52;68.32;99466.97;5017450;28;19956;-69
2023/03/08 06:26:05;;;;;;;;;;;;;;;4.52;68.06;99464.31;5033377;28;19983;-67
2023/03/08 06:28:30;;;;;;;;;;;;;;;4.51;68.46;99468.00;5032230;28;19921;-67
2023/03/08 06:30:56;;;;;;;;;;;;;;;4.50;68.33;99461.84;5030746;28;20166;-67
2023/03/08 06:33:23;;;;;;;;;;;;;;;4.51;68.05;99457.31;5023164;28;19917;-69
2023/03/08 06:36:17;;;;;;;;;;;;;;;4.49;68.08;99456.75;5029716;28;20047;-67
2023/03/08 06:38:43;;;;;;;;;;;;;;;4.50;68.08;99458.38;5015849;28;20387;-67
2023/03/08 06:41:09;;;;;;;;;;;;;;;4.49;68.36;99462.09;5027981;28;19924;-67
2023/03/08 06:43:34;;;;;;;;;;;;;;;4.49;68.05;99459.44;5028495;28;19924;-73
2023/03/08 06:46:07;;;;;;;;;;;;;;;4.49;68.19;99456.75;5020679;28;19927;-67
2023/03/08 06:48:35;;;;;;;;;;;;;;;4.47;68.36;99453.50;5019509;28;19917;-67
2023/03/08 06:51:01;;;;;;;;;;;;;;;4.48;68.18;99463.13;5032832;28;19921;-67
2023/03/08 06:53:26;;;;;;;;;;;;;;;4.47;68.16;99467.69;5033210;28;20318;-68
2023/03/08 06:55:52;;;;;;;;;;;;;;;4.46;68.26;99466.06;5019162;28;20341;-67
2023/03/08 06:58:17;;;;;;;;;;;;;;;4.45;68.32;99458.25;5032930;28;19921;-67
2023/03/08 07:00:42;;;;;;;;;;;;;;;4.45;67.98;99452.91;5032817;28;20017;-68
2023/03/08 07:03:09;;;;;;;;;;;;;;;4.43;68.25;99453.13;5031610;28;19921;-69
2023/03/08 07:05:34;;;;;;;;;;;;;;;4.44;68.00;99452.09;5028540;28;20017;-68
2023/03/08 07:07:59;;;;;;;;;;;;;;;4.43;68.25;99445.13;5014296;28;19948;-68
2023/03/08 07:10:24;;;;;;;;;;;;;;;4.42;67.88;99440.03;5023264;28;19922;-67
2023/03/08 07:12:50;;;;;;;;;;;;;;;4.42;67.90;99434.69;5023405;28;19979;-68
2023/03/08 07:15:19;;;;;;;;;;;;;;;4.41;68.08;99435.72;5026748;28;19921;-67
2023/03/08 07:17:45;;;;;;;;;;;;;;;4.41;67.88;99433.03;5017033;28;19925;-68
2023/03/08 07:20:12;;;;;;;;;;;;;;;4.41;67.91;99428.53;5019135;28;19921;-68
2023/03/08 07:22:37;;;;;;;;;;;;;;;4.40;67.93;99424.19;5013927;28;19960;-68
2023/03/08 07:25:03;;;;;;;;;;;;;;;4.40;68.11;99421.53;5029341;28;19921;-68
2023/03/08 07:27:28;;;;;;;;;;;;;;;4.39;68.04;99424.47;5031840;28;19924;-68
2023/03/08 07:29:53;;;;;;;;;;;;;;;4.38;67.83;99417.47;5031234;28;19921;-71
2023/03/08 07:32:18;;;;;;;;;;;;;;;4.37;67.73;99423.88;5024515;28;20325;-68
2023/03/08 07:34:44;;;;;;;;;;;;;;;4.37;67.66;99419.34;5021071;28;20407;-67
2023/03/08 07:37:10;;;;;;;;;;;;;;;4.37;67.88;99410.50;5027200;28;19963;-68
2023/03/08 07:39:35;;;;;;;;;;;;;;;4.36;67.76;99412.38;5027770;28;19917;-67
2023/03/08 07:42:10;;;;;;;;;;;;;;;4.34;67.86;99415.25;5026477;28;19921;-70
2023/03/08 07:44:36;;;;;;;;;;;;;;;4.33;67.66;99412.81;5026798;28;19968;-66
2023/03/08 07:47:02;;;;;;;;;;;;;;;4.32;67.78;99412.00;5026593;28;19964;-63
2023/03/08 07:49:27;;;;;;;;;;;;;;;4.32;67.87;99416.53;5025037;28;20012;-69
2023/03/08 07:51:52;;;;;;;;;;;;;;;4.31;67.77;99399.69;5020475;28;19963;-68
2023/03/08 07:54:18;;;;;;;;;;;;;;;4.30;67.80;99395.38;5025531;28;19917;-68
2023/03/08 07:56:43;;;;;;;;;;;;;;;4.29;67.77;99392.97;5025338;28;19987;-72
2023/03/08 07:59:08;;;;;;;;;;;;;;;4.29;67.89;99390.28;5023018;28;20361;-67
2023/03/08 08:01:33;;;;;;;;;;;;;;;4.28;67.92;99392.16;5021756;28;20040;-68
2023/03/08 08:03:59;;;;;;;;;;;;;;;4.27;67.73;99395.88;5023376;28;19921;-67
2023/03/08 08:06:25;;;;;;;;;;;;;;;4.26;67.96;99386.22;5023354;28;20369;-68
2023/03/08 08:08:50;;;;;;;;;;;;;;;4.27;67.65;99384.38;5023766;28;19928;-68
2023/03/08 08:11:16;;;;;;;;;;;;;;;4.25;68.06;99373.91;5023988;28;19920;-68
2023/03/08 08:13:41;;;;;;;;;;;;;;;4.25;67.73;99368.53;5024275;28;20348;-71
2023/03/08 08:16:07;;;;;;;;;;;;;;;4.26;67.84;99361.38;5023343;28;19952;-68
2023/03/08 08:18:33;;;;;;;;;;;;;;;4.26;67.74;99361.38;5025529;28;19921;-69
2023/03/08 08:21:08;;;;;;;;;;;;;;;4.25;67.89;99360.53;5024264;28;20014;-67
2023/03/08 08:23:34;;;;;;;;;;;;;;;4.25;67.78;99354.38;5023521;28;19924;-69
2023/03/08 08:26:02;;;;;;;;;;;;;;;4.25;67.87;99354.38;5024592;28;19921;-66
2023/03/08 08:28:28;;;;;;;;;;;;;;;4.24;67.74;99339.41;5024212;28;20892;-67
2023/03/08 08:30:57;;;;;;;;;;;;;;;4.23;67.49;99341.22;5022829;28;19917;-68
2023/03/08 08:33:22;;;;;;;;;;;;;;;4.22;67.89;99339.63;5022724;28;19921;-71
2023/03/08 08:35:47;;;;;;;;;;;;;;;4.20;67.90;99344.38;5024121;28;20420;-69
2023/03/08 08:38:13;;;;;;;;;;;;;;;4.20;67.82;99341.72;5025226;28;19929;-68
2023/03/08 08:40:38;;;;;;;;;;;;;;;4.21;67.82;99347.88;5020866;28;20008;-67
2023/03/08 08:43:03;;;;;;;;;;;;;;;4.20;67.49;99354.28;5021562;28;19917;-68
2023/03/08 08:45:28;;;;;;;;;;;;;;;4.19;67.60;99361.47;5020693;28;19925;-68
2023/03/08 08:47:54;;;;;;;;;;;;;;;4.19;67.72;99368.69;5023499;28;20020;-71
2023/03/08 08:50:19;;;;;;;;;;;;;;;4.19;67.86;99374.03;5022859;28;20452;-69
2023/03/08 08:52:44;;;;;;;;;;;;;;;4.19;67.66;99382.06;5023888;28;19925;-68
2023/03/08 08:55:09;;;;;;;;;;;;;;;4.18;67.75;99383.88;5023250;28;19932;-68
2023/03/08 08:57:35;;;;;;;;;;;;;;;4.17;67.47;99382.28;5027082;28;19928;-67
2023/03/08 09:00:00;;;;;;;;;;;;;;;4.18;67.71;99372.41;5028121;28;20000;-67
2023/03/08 09:02:25;;;;;;;;;;;;;;;4.17;67.56;99355.56;5029707;28;19928;-68
2023/03/08 09:04:50;;;;;;;;;;;;;;;4.17;67.41;99331.50;5028740;28;19921;-69
2023/03/08 09:07:16;;;;;;;;;;;;;;;4.17;67.53;99314.66;5029745;28;19964;-68
2023/03/08 09:09:41;;;;;;;;;;;;;;;4.15;67.42;99298.84;5027877;28;19920;-69
2023/03/08 09:12:06;;;;;;;;;;;;;;;4.16;67.57;99305.00;5027679;28;20012;-67
2023/03/08 09:14:33;;;;;;;;;;;;;;;4.12;67.63;99305.47;5028658;28;19917;-69
2023/03/08 09:16:58;;;;;;;;;;;;;;;4.12;67.75;99307.34;5026721;28;19917;-69
2023/03/08 09:19:23;;;;;;;;;;;;;;;4.12;67.77;99299.31;5031011;28;20388;-69
2023/03/08 09:21:48;;;;;;;;;;;;;;;4.11;67.67;99303.06;5027004;28;20009;-70
2023/03/08 09:24:15;;;;;;;;;;;;;;;4.10;67.31;99298.75;5031198;28;19976;-69
2023/03/08 09:26:40;;;;;;;;;;;;;;;4.09;67.44;99302.47;5030466;28;20901;-67
2023/03/08 09:29:06;;;;;;;;;;;;;;;4.08;67.44;99300.84;5029826;28;19927;-67
2023/03/08 09:31:32;;;;;;;;;;;;;;;4.06;67.27;99292.25;5028424;28;19921;-71
2023/03/08 09:33:58;;;;;;;;;;;;;;;4.06;67.58;99289.59;5025872;28;20008;-68
2023/03/08 09:36:24;;;;;;;;;;;;;;;4.04;67.78;99281.81;5030717;28;19944;-68
2023/03/08 09:38:50;;;;;;;;;;;;;;;4.04;67.61;99276.44;5030830;28;20380;-69
2023/03/08 09:41:16;;;;;;;;;;;;;;;4.03;67.55;99280.19;5030189;28;19925;-70
2023/03/08 09:43:46;;;;;;;;;;;;;;;4.03;67.47;99276.69;5032078;28;20319;-70
2023/03/08 09:46:12;;;;;;;;;;;;;;;4.02;67.54;99280.41;5031211;28;20051;-69
2023/03/08 09:48:43;;;;;;;;;;;;;;;4.03;67.56;99274.00;5030724;28;20019;-71
2023/03/08 09:51:10;;;;;;;;;;;;;;;4.02;67.33;99267.84;5029487;28;20265;-69
2023/03/08 09:53:40;;;;;;;;;;;;;;;4.01;67.31;99260.09;5030782;28;19921;-70
2023/03/08 09:56:08;;;;;;;;;;;;;;;4.01;67.54;99260.09;5027993;28;20439;-68
2023/03/08 09:58:33;;;;;;;;;;;;;;;4.00;67.47;99266.47;5025793;28;19975;-68
2023/03/08 10:01:25;;;;;;;;;;;;;;;4.01;67.52;99265.44;5032396;28;20307;-71
2023/03/08 10:04:03;;;;;;;;;;;;;;;3.99;67.34;99268.34;5031302;28;20319;-70
2023/03/08 10:06:35;;;;;;;;;;;;;;;3.99;67.64;99273.69;5026774;28;19928;-68
2023/03/08 10:09:19;;;;;;;;;;;;;;;3.99;67.44;99278.22;5024523;28;20011;-72
2023/03/08 10:11:52;;;;;;;;;;;;;;;3.98;67.34;99276.56;5025094;28;19921;-68
2023/03/08 10:14:19;;;;;;;;;;;;;;;3.99;67.12;99267.53;5027325;28;19913;-68
2023/03/08 10:16:47;;;;;;;;;;;;;;;3.99;67.31;99264.84;5029664;28;19935;-69
2023/03/08 10:19:21;;;;;;;;;;;;;;;3.99;67.38;99265.66;5028714;28;19920;-67
2023/03/08 10:21:47;;;;;;;;;;;;;;;3.99;67.39;99272.88;5026952;28;19963;-68
2023/03/08 10:24:14;;;;;;;;;;;;;;;3.99;67.38;99271.00;5027626;28;19940;-71
2023/03/08 10:26:40;;;;;;;;;;;;;;;3.98;67.33;99263.22;5027649;28;19924;-68
2023/03/08 10:29:05;;;;;;;;;;;;;;;4.00;67.22;99256.59;5027117;28;20013;-70
2023/03/08 10:31:32;;;;;;;;;;;;;;;4.00;67.34;99234.41;5029146;28;20066;-71
2023/03/08 10:34:09;;;;;;;;;;;;;;;3.99;67.49;99238.13;5026930;28;19923;-68
2023/03/08 10:36:45;;;;;;;;;;;;;;;3.99;67.42;99228.25;5028401;28;20166;-70
2023/03/08 10:39:10;;;;;;;;;;;;;;;3.99;67.34;99214.09;5026883;28;19913;-68
2023/03/08 10:41:43;;;;;;;;;;;;;;;4.00;67.21;99229.06;5028672;28;20148;-70
2023/03/08 10:44:11;;;;;;;;;;;;;;;4.00;67.66;99245.09;5027853;28;19912;-70
2023/03/08 10:46:44;;;;;;;;;;;;;;;4.00;67.54;99256.59;5026698;28;19913;-68
2023/03/08 10:49:14;;;;;;;;;;;;;;;4.01;67.76;99258.22;5027423;28;19925;-68
2023/03/08 10:51:50;;;;;;;;;;;;;;;4.03;67.59;99247.28;5025038;28;19999;-69
2023/03/08 10:54:15;;;;;;;;;;;;;;;4.04;67.55;99246.25;5025837;28;20008;-70
2023/03/08 10:56:43;;;;;;;;;;;;;;;4.04;67.54;99246.25;5024698;28;20019;-70
2023/03/08 10:59:26;;;;;;;;;;;;;;;4.04;67.42;99246.25;5024756;28;19913;-68
2023/03/08 11:01:57;;;;;;;;;;;;;;;4.04;67.20;99252.41;5026491;28;19921;-69
2023/03/08 11:04:23;;;;;;;;;;;;;;;4.05;67.54;99242.53;5023693;28;19916;-68
2023/03/08 11:06:49;;;;;;;;;;;;;;;4.05;67.23;99242.53;5029494;28;19909;-68
2023/03/08 11:09:25;;;;;;;;;;;;;;;4.06;67.23;99230.81;5026818;28;19909;-67
2023/03/08 11:11:50;;;;;;;;;;;;;;;4.07;67.47;99224.41;5024905;28;19909;-70
2023/03/08 11:14:16;;;;;;;;;;;;;;;4.08;67.34;99226.00;5022661;28;19975;-68
2023/03/08 11:16:44;;;;;;;;;;;;;;;4.08;67.57;99218.84;5027173;28;20636;-67
2023/03/08 11:19:28;;;;;;;;;;;;;;;4.08;67.69;99221.50;5027963;28;19917;-68
2023/03/08 11:22:01;;;;;;;;;;;;;;;4.08;67.48;99220.66;5026141;28;19921;-70
2023/03/08 11:24:29;;;;;;;;;;;;;;;4.09;67.33;99233.00;5027388;28;19924;-69
2023/03/08 11:27:03;;;;;;;;;;;;;;;4.09;67.43;99227.66;5026885;28;20004;-69
2023/03/08 11:29:41;;;;;;;;;;;;;;;4.10;67.78;99221.25;5023965;28;20289;-68
2023/03/08 11:32:42;;;;;;;;;;;;;;;4.10;67.42;99222.06;5026466;28;19916;-70
2023/03/08 11:35:13;;;;;;;;;;;;;;;4.11;67.14;99223.69;5004142;28;19925;-70
2023/03/08 11:37:47;;;;;;;;;;;;;;;4.12;67.23;99219.97;5021653;28;20360;-69
2023/03/08 11:40:33;;;;;;;;;;;;;;;4.12;67.23;99203.13;5023586;28;19924;-68
2023/03/08 11:43:10;;;;;;;;;;;;;;;4.13;67.33;99194.03;5025445;28;19925;-69
2023/03/08 11:45:41;;;;;;;;;;;;;;;4.13;67.15;99196.72;5025528;28;19913;-69
2023/03/08 11:48:10;;;;;;;;;;;;;;;4.13;67.44;99196.72;5022294;28;19945;-72
2023/03/08 11:50:48;;;;;;;;;;;;;;;4.15;67.01;99202.63;5026877;28;19959;-68
2023/03/08 11:53:16;;;;;;;;;;;;;;;4.16;67.45;99203.44;5025005;28;19959;-69
2023/03/08 11:55:45;;;;;;;;;;;;;;;4.16;67.40;99200.78;5027391;28;19916;-72
2023/03/08 11:58:19;;;;;;;;;;;;;;;4.15;67.27;99189.28;5024070;28;20360;-67
2023/03/08 12:00:45;;;;;;;;;;;;;;;4.17;67.20;99192.53;5026220;28;19920;-72
2023/03/08 12:03:31;;;;;;;;;;;;;;;4.17;67.07;99194.41;5025130;28;19920;-69
2023/03/08 12:05:58;;;;;;;;;;;;;;;4.17;67.34;99197.88;5019908;28;19913;-68
2023/03/08 12:08:29;;;;;;;;;;;;;;;4.17;67.07;99208.56;5026345;28;19924;-74
2023/03/08 12:10:55;;;;;;;;;;;;;;;4.18;67.06;99214.72;5025322;28;20285;-71
2023/03/08 12:13:40;;;;;;;;;;;;;;;4.19;67.09;99214.50;5019218;28;20376;-70
2023/03/08 12:16:18;;;;;;;;;;;;;;;4.19;67.35;99217.16;5026114;28;19917;-68
2023/03/08 12:18:49;;;;;;;;;;;;;;;4.22;67.54;99215.88;5023757;28;19917;-68
2023/03/08 12:21:14;;;;;;;;;;;;;;;4.22;67.24;99211.34;5027709;28;19913;-69
2023/03/08 12:23:55;;;;;;;;;;;;;;;4.23;67.27;99210.28;5022381;28;20262;-69
2023/03/08 12:26:35;;;;;;;;;;;;;;;4.26;67.37;99217.03;5023077;28;20387;-72
2023/03/08 12:29:12;;;;;;;;;;;;;;;4.26;67.36;99201.78;5023455;28;20480;-68
2023/03/08 12:31:40;;;;;;;;;;;;;;;4.26;67.17;99169.72;5021829;28;19913;-68
2023/03/08 12:34:26;;;;;;;;;;;;;;;4.26;67.33;99161.72;5023268;28;19960;-67
2023/03/08 12:36:51;;;;;;;;;;;;;;;4.27;67.25;99160.66;5026195;28;20331;-69
2023/03/08 12:39:46;;;;;;;;;;;;;;;4.26;67.06;99159.03;5027215;28;20265;-69
2023/03/08 12:42:13;;;;;;;;;;;;;;;4.27;67.19;99151.81;5011648;28;19925;-70
2023/03/08 12:44:38;;;;;;;;;;;;;;;4.29;67.02;99153.19;5023741;28;19913;-71
2023/03/08 12:47:24;;;;;;;;;;;;;;;4.29;66.94;99142.50;5026111;28;19924;-74
2023/03/08 12:49:51;;;;;;;;;;;;;;;4.29;67.12;99153.19;5021862;28;20624;-71
2023/03/08 12:52:16;;;;;;;;;;;;;;;4.29;66.94;99155.88;5025427;28;19913;-69
2023/03/08 12:54:41;;;;;;;;;;;;;;;4.30;67.29;99160.16;5024491;28;19916;-69
2023/03/08 12:57:14;;;;;;;;;;;;;;;4.32;66.96;99149.25;5023831;28;19971;-69
2023/03/08 12:59:40;;;;;;;;;;;;;;;4.34;67.23;99137.25;5022672;28;20272;-69